Time;durP1;ratioP1;P1;durP2;ratioP2;P2;SDS_P1;SDS_P2;PMS_P1;PMS_P2;Temp;Humidity;BMP_temperature;BMP_pressure;BME280_temperature;BME280_humidity;BME280_pressure;Samples;Min_cycle;Max_cycle;Signal;HPM_P1;HPM_P2
2023/03/28 00:01:21;;;;;;;3.07;0.60;;;;;;;5.39;59.65;101869.34;4997907;28;97118;-49
2023/03/28 00:03:46;;;;;;;5.13;0.83;;;;;;;5.38;59.34;101861.56;4995125;28;97305;-49
2023/03/28 00:06:17;;;;;;;1.20;0.70;;;;;;;5.35;59.91;101865.16;5000638;28;99047;-50
2023/03/28 00:08:44;;;;;;;1.47;0.70;;;;;;;5.31;59.55;101859.75;4999909;28;96977;-50
2023/03/28 00:11:20;;;;;;;11.77;0.73;;;;;;;5.31;59.77;101865.22;4995234;28;97241;-48
2023/03/28 00:13:59;;;;;;;4.83;0.80;;;;;;;5.28;60.13;101872.31;4995654;28;97270;-49
2023/03/28 00:16:33;;;;;;;1.03;0.83;;;;;;;5.26;59.93;101869.22;4998193;28;97129;-50
2023/03/28 00:19:10;;;;;;;1.53;0.77;;;;;;;5.25;59.67;101873.16;4994907;28;97111;-49
2023/03/28 00:21:38;;;;;;;1.53;0.90;;;;;;;5.22;59.94;101867.81;4997130;28;98054;-49
2023/03/28 00:24:09;;;;;;;2.83;0.80;;;;;;;5.22;59.65;101875.97;4994528;28;97078;-48
2023/03/28 00:26:35;;;;;;;3.60;0.73;;;;;;;5.21;59.87;101882.63;4993187;28;96767;-51
2023/03/28 00:29:05;;;;;;;2.60;0.80;;;;;;;5.17;59.43;101881.94;4993036;28;97770;-49
2023/03/28 00:31:33;;;;;;;5.33;0.63;;;;;;;5.12;59.98;101888.66;4996918;28;97593;-49
2023/03/28 00:33:59;;;;;;;1.73;0.50;;;;;;;5.11;60.00;101892.56;4994726;28;97391;-49
2023/03/28 00:36:28;;;;;;;6.07;0.80;;;;;;;5.09;60.03;101897.69;4997125;28;97264;-49
2023/03/28 00:38:54;;;;;;;6.10;0.80;;;;;;;5.11;59.78;101900.00;4998494;28;96991;-49
2023/03/28 00:41:22;;;;;;;2.80;0.60;;;;;;;5.06;60.04;101897.78;4995806;28;96697;-49
2023/03/28 00:43:51;;;;;;;3.80;0.80;;;;;;;5.04;59.95;101906.38;4995154;28;96697;-49
2023/03/28 00:46:35;;;;;;;4.77;0.97;;;;;;;5.04;60.45;101911.06;4994476;28;97123;-50
2023/03/28 00:49:12;;;;;;;2.20;0.70;;;;;;;5.02;60.24;101908.00;4998739;28;97041;-49
2023/03/28 00:51:47;;;;;;;3.60;0.90;;;;;;;5.04;60.09;101911.06;4997780;28;97343;-50
2023/03/28 00:54:17;;;;;;;4.80;0.90;;;;;;;5.05;60.01;101907.91;4993180;28;96850;-49
2023/03/28 00:56:46;;;;;;;8.43;1.27;;;;;;;5.05;60.04;101918.81;4996035;28;96687;-49
2023/03/28 00:59:17;;;;;;;2.87;0.50;;;;;;;5.02;60.37;101910.72;4996122;28;97107;-49
2023/03/28 01:01:43;;;;;;;1.50;0.80;;;;;;;5.01;60.32;101914.63;4994350;28;97207;-49
2023/03/28 01:04:09;;;;;;;3.17;0.70;;;;;;;5.01;60.24;101920.09;4997329;28;97146;-50
2023/03/28 01:06:40;;;;;;;6.70;0.63;;;;;;;5.03;60.42;101917.69;4995682;28;97347;-50
2023/03/28 01:09:07;;;;;;;1.43;0.70;;;;;;;5.04;60.45;101924.69;4996233;28;97332;-48
2023/03/28 01:11:35;;;;;;;2.50;0.77;;;;;;;5.04;60.10;101936.38;4991903;28;97516;-49
2023/03/28 01:14:03;;;;;;;2.23;0.63;;;;;;;5.03;60.39;101931.34;4996693;28;97095;-49
2023/03/28 01:16:31;;;;;;;9.20;1.00;;;;;;;5.03;60.38;101923.16;4996341;28;96898;-50
2023/03/28 01:19:02;;;;;;;2.10;0.77;;;;;;;5.03;60.32;101936.78;4994328;28;97243;-49
2023/03/28 01:22:11;;;;;;;2.80;0.50;;;;;;;5.00;61.16;101943.09;4994656;28;97016;-49
2023/03/28 01:25:07;;;;;;;0.80;0.40;;;;;;;5.00;60.99;101943.84;4991756;28;97039;-50
2023/03/28 01:27:50;;;;;;;5.90;0.50;;;;;;;4.96;60.42;101942.38;4997601;28;97135;-49
2023/03/28 01:30:35;;;;;;;2.63;0.70;;;;;;;4.94;60.97;101948.28;4994405;28;97480;-50
2023/03/28 01:33:12;;;;;;;2.87;0.47;;;;;;;4.92;60.51;101942.47;4995889;28;99370;-50
2023/03/28 01:35:46;;;;;;;1.97;0.77;;;;;;;4.92;60.62;101947.94;4994546;28;97099;-50
2023/03/28 01:38:33;;;;;;;1.20;0.70;;;;;;;4.93;61.08;101949.47;4991078;28;97077;-50
2023/03/28 01:41:13;;;;;;;1.73;0.80;;;;;;;4.90;60.96;101955.00;4996706;28;97154;-50
2023/03/28 01:43:55;;;;;;;1.40;0.80;;;;;;;4.89;60.82;101964.38;4995349;28;96718;-51
2023/03/28 01:46:41;;;;;;;2.60;0.67;;;;;;;4.87;61.22;101958.56;4995414;28;97458;-50
2023/03/28 01:49:11;;;;;;;2.37;0.80;;;;;;;4.86;60.92;101960.53;4991641;28;97129;-51
2023/03/28 01:51:57;;;;;;;3.23;0.80;;;;;;;4.89;61.00;101959.66;4995710;28;97392;-50
2023/03/28 01:54:42;;;;;;;2.77;0.67;;;;;;;4.91;60.65;101965.50;4997363;28;97421;-50
2023/03/28 01:57:23;;;;;;;1.53;0.50;;;;;;;4.94;60.83;101959.19;4995755;28;97156;-50
2023/03/28 01:59:52;;;;;;;1.37;0.50;;;;;;;4.97;60.52;101963.03;4992667;28;96978;-50
2023/03/28 02:02:33;;;;;;;2.80;0.67;;;;;;;4.98;60.67;101954.41;4993975;28;97550;-51
2023/03/28 02:05:03;;;;;;;2.03;0.90;;;;;;;5.00;60.53;101962.94;4994922;28;97146;-49
2023/03/28 02:07:32;;;;;;;0.90;0.70;;;;;;;5.05;60.22;101967.91;4991652;28;96950;-50
2023/03/28 02:10:00;;;;;;;2.90;1.60;;;;;;;5.07;60.40;101967.47;4993474;28;96713;-50
2023/03/28 02:12:31;;;;;;;0.97;0.63;;;;;;;5.11;60.43;101976.38;4992670;28;97637;-50
2023/03/28 02:15:03;;;;;;;4.60;0.60;;;;;;;5.13;60.44;101974.00;4992018;28;97204;-50
2023/03/28 02:17:33;;;;;;;3.43;0.70;;;;;;;5.16;60.62;101978.59;4995785;28;97009;-50
2023/03/28 02:20:07;;;;;;;3.03;0.60;;;;;;;5.16;60.36;101981.31;4995616;28;97394;-50
2023/03/28 02:22:39;;;;;;;1.67;0.60;;;;;;;5.14;60.38;101981.75;4995029;28;97555;-50
2023/03/28 02:25:05;;;;;;;2.50;0.50;;;;;;;5.10;60.51;101985.75;4993851;28;97124;-50
2023/03/28 02:27:32;;;;;;;1.70;0.40;;;;;;;5.09;60.26;101974.06;4996021;28;97290;-50
2023/03/28 02:29:59;;;;;;;2.43;0.57;;;;;;;5.05;60.65;101975.31;4995024;28;97488;-50
2023/03/28 02:32:24;;;;;;;1.40;0.60;;;;;;;5.04;60.37;101982.75;4992721;28;97146;-50
2023/03/28 02:34:53;;;;;;;2.83;0.50;;;;;;;4.99;60.59;101982.47;4993756;28;106379;-51
2023/03/28 02:37:34;;;;;;;6.23;0.63;;;;;;;4.95;61.00;101987.22;4996243;28;96895;-49
2023/03/28 02:40:38;;;;;;;2.03;0.60;;;;;;;4.92;61.85;101986.09;4995650;28;97219;-49
2023/03/28 02:43:15;;;;;;;2.00;0.87;;;;;;;4.95;60.94;101984.50;4959749;28;99093;-50
2023/03/28 02:45:59;;;;;;;3.03;0.90;;;;;;;4.97;61.20;101985.63;4991378;28;97836;-50
2023/03/28 02:48:27;;;;;;;2.83;0.60;;;;;;;4.97;60.96;101982.91;4994213;28;97393;-50
2023/03/28 02:51:21;;;;;;;1.00;0.60;;;;;;;4.98;61.59;101986.41;4994000;28;96955;-50
2023/03/28 02:54:11;;;;;;;1.47;0.70;;;;;;;5.00;61.52;101986.75;4990386;28;97715;-50
2023/03/28 02:56:51;;;;;;;2.53;0.70;;;;;;;5.00;60.92;101992.19;4995963;28;97166;-51
2023/03/28 02:59:16;;;;;;;2.13;0.77;;;;;;;5.02;60.78;101996.00;4993189;28;97100;-50
2023/03/28 03:01:43;;;;;;;5.30;0.90;;;;;;;5.03;60.86;101994.06;4992334;28;96722;-50
2023/03/28 03:04:10;;;;;;;1.53;0.93;;;;;;;5.03;60.69;102003.03;4994252;28;96852;-51
2023/03/28 03:06:35;;;;;;;4.93;0.97;;;;;;;5.05;60.72;102002.59;4993400;28;97442;-51
2023/03/28 03:09:03;;;;;;;2.40;0.63;;;;;;;5.08;60.93;101999.81;4993827;28;97019;-50
2023/03/28 03:11:29;;;;;;;5.03;0.87;;;;;;;5.11;60.72;102009.84;4994640;28;97466;-50
2023/03/28 03:13:56;;;;;;;3.37;1.33;;;;;;;5.14;60.79;102008.25;4992587;28;97494;-50
2023/03/28 03:16:22;;;;;;;4.93;0.97;;;;;;;5.15;60.75;102002.41;4996867;28;97176;-50
2023/03/28 03:18:48;;;;;;;5.27;1.30;;;;;;;5.20;60.83;102020.97;4995150;28;97112;-50
2023/03/28 03:21:13;;;;;;;2.73;0.67;;;;;;;5.22;60.98;102020.56;4993959;28;96884;-49
2023/03/28 03:23:38;;;;;;;2.00;0.80;;;;;;;5.21;60.83;102014.34;4994767;28;105327;-50
2023/03/28 03:26:04;;;;;;;8.77;0.90;;;;;;;5.24;60.73;102018.94;4994932;28;108976;-51
2023/03/28 03:28:30;;;;;;;1.43;0.90;;;;;;;5.27;60.95;102023.56;4992769;28;97298;-51
2023/03/28 03:30:56;;;;;;;13.13;1.43;;;;;;;5.28;60.54;102025.13;4993126;28;97210;-51
2023/03/28 03:33:21;;;;;;;6.60;1.10;;;;;;;5.27;60.85;102030.97;4999380;28;97568;-49
2023/03/28 03:35:46;;;;;;;3.03;1.17;;;;;;;5.29;60.92;102029.38;4997999;28;97016;-50
2023/03/28 03:38:12;;;;;;;0.80;0.60;;;;;;;5.27;61.21;102030.97;4996058;28;97413;-49
2023/03/28 03:40:38;;;;;;;2.93;0.90;;;;;;;5.26;60.75;102026.72;4997088;28;96969;-49
2023/03/28 03:43:03;;;;;;;1.80;0.70;;;;;;;5.23;61.14;102028.31;4999592;28;97207;-49
2023/03/28 03:45:28;;;;;;;6.10;0.97;;;;;;;5.21;60.96;102024.47;4997967;28;103914;-51
2023/03/28 03:47:54;;;;;;;6.47;0.80;;;;;;;5.19;60.93;102026.84;4997523;28;96948;-49
2023/03/28 03:50:19;;;;;;;2.17;0.90;;;;;;;5.16;61.03;102038.59;4995219;28;100864;-50
2023/03/28 03:52:44;;;;;;;2.83;0.93;;;;;;;5.16;60.76;102033.16;4992779;28;99756;-50
2023/03/28 03:55:10;;;;;;;5.37;1.23;;;;;;;5.14;60.95;102033.56;4993264;28;97462;-48
2023/03/28 03:57:35;;;;;;;7.33;1.07;;;;;;;5.13;61.03;102029.31;4996583;28;97438;-49
2023/03/28 04:00:07;;;;;;;2.60;0.60;;;;;;;5.14;61.09;102036.31;4992181;28;97418;-48
2023/03/28 04:02:33;;;;;;;2.77;1.03;;;;;;;5.14;60.90;102030.06;4995801;28;97367;-49
2023/03/28 04:04:58;;;;;;;4.47;0.80;;;;;;;5.14;61.08;102030.06;4996970;28;97025;-49
2023/03/28 04:07:24;;;;;;;4.53;1.03;;;;;;;5.11;60.86;102028.94;4996223;28;97360;-49
2023/03/28 04:09:49;;;;;;;4.33;1.10;;;;;;;5.13;60.81;102029.31;4998349;28;97259;-48
2023/03/28 04:12:14;;;;;;;1.87;0.63;;;;;;;5.11;60.95;102030.94;4998214;28;97817;-49
2023/03/28 04:14:40;;;;;;;5.50;1.00;;;;;;;5.08;60.58;102024.34;4995752;28;97639;-49
2023/03/28 04:17:05;;;;;;;6.40;0.87;;;;;;;5.04;60.91;102025.63;4995250;28;97079;-49
2023/03/28 04:19:30;;;;;;;1.67;0.60;;;;;;;5.02;60.76;102034.19;4995773;28;97439;-50
2023/03/28 04:21:56;;;;;;;2.93;0.97;;;;;;;4.98;60.66;102030.78;4997454;28;97286;-50
2023/03/28 04:24:25;;;;;;;0.80;0.80;;;;;;;4.95;60.75;102036.31;4997789;28;109702;-48
2023/03/28 04:26:54;;;;;;;1.17;0.53;;;;;;;4.91;60.69;102036.38;4996818;28;97506;-49
2023/03/28 04:29:29;;;;;;;1.67;0.70;;;;;;;4.89;60.63;102033.28;4997301;28;97028;-48
2023/03/28 04:31:58;;;;;;;2.20;0.70;;;;;;;4.84;60.71;102031.06;4993929;28;97290;-49
2023/03/28 04:34:28;;;;;;;3.10;1.00;;;;;;;4.81;60.57;102036.56;4995503;28;97770;-48
2023/03/28 04:37:01;;;;;;;3.90;0.93;;;;;;;4.77;60.69;102050.28;4996384;28;97108;-49
2023/03/28 04:39:31;;;;;;;1.73;1.10;;;;;;;4.75;60.87;102060.84;4996648;28;97423;-48
2023/03/28 04:42:02;;;;;;;4.37;1.10;;;;;;;4.72;61.14;102060.91;4995865;28;97904;-48
2023/03/28 04:44:30;;;;;;;2.67;1.13;;;;;;;4.73;60.82;102060.47;4995912;28;97347;-49
2023/03/28 04:46:57;;;;;;;4.23;0.87;;;;;;;4.71;60.95;102062.84;4993365;28;97218;-50
2023/03/28 04:49:22;;;;;;;2.00;0.70;;;;;;;4.72;61.00;102060.91;4993780;28;96982;-48
2023/03/28 04:51:49;;;;;;;2.20;0.83;;;;;;;4.72;60.74;102063.63;4996083;28;98004;-49
2023/03/28 04:54:15;;;;;;;1.73;0.70;;;;;;;4.72;61.03;102074.53;4994300;28;97213;-50
2023/03/28 04:56:44;;;;;;;3.17;1.13;;;;;;;4.71;61.05;102076.50;4996070;28;97314;-50
2023/03/28 04:59:13;;;;;;;4.30;1.10;;;;;;;4.75;60.94;102077.19;4994136;28;97105;-50
2023/03/28 05:01:38;;;;;;;2.83;0.87;;;;;;;4.75;61.03;102079.91;4993872;28;97488;-50
2023/03/28 05:04:05;;;;;;;3.80;1.10;;;;;;;4.77;61.01;102084.94;4992219;28;97330;-49
2023/03/28 05:06:30;;;;;;;1.67;0.90;;;;;;;4.76;61.16;102110.69;4994810;28;97261;-50
2023/03/28 05:08:56;;;;;;;9.00;1.17;;;;;;;4.80;61.01;102101.25;4994734;28;97180;-50
2023/03/28 05:11:22;;;;;;;3.00;1.00;;;;;;;4.83;61.34;102094.19;4996109;28;97654;-50
2023/03/28 05:13:47;;;;;;;2.63;1.00;;;;;;;4.85;61.20;102094.56;4991791;28;97689;-49
2023/03/28 05:16:12;;;;;;;1.10;0.90;;;;;;;4.87;61.04;102103.84;4996699;28;97310;-49
2023/03/28 05:18:38;;;;;;;1.43;0.80;;;;;;;4.88;61.07;102113.56;4993577;28;97770;-49
2023/03/28 05:21:03;;;;;;;3.77;0.90;;;;;;;4.90;61.11;102119.38;4994310;28;97271;-49
2023/03/28 05:23:29;;;;;;;2.50;1.17;;;;;;;4.96;61.27;102119.66;4993933;28;97135;-49
2023/03/28 05:25:54;;;;;;;2.77;0.70;;;;;;;4.98;61.21;102120.78;4996066;28;97534;-49
2023/03/28 05:28:20;;;;;;;1.90;1.00;;;;;;;4.98;61.10;102126.22;4996347;28;96970;-50
2023/03/28 05:30:46;;;;;;;6.10;1.60;;;;;;;5.02;61.26;102126.94;4993319;28;110244;-50
2023/03/28 05:33:12;;;;;;;8.83;1.10;;;;;;;5.05;61.08;102126.09;4994978;28;97282;-50
2023/03/28 05:35:38;;;;;;;2.07;1.30;;;;;;;5.06;61.53;102126.88;4994592;28;96857;-50
2023/03/28 05:38:04;;;;;;;1.60;1.10;;;;;;;5.07;61.02;102133.84;4997366;28;97097;-49
2023/03/28 05:40:29;;;;;;;4.70;1.20;;;;;;;5.06;61.20;102138.56;4994710;28;97365;-50
2023/03/28 05:42:55;;;;;;;2.30;1.10;;;;;;;5.03;61.04;102125.75;4992644;28;97089;-51
2023/03/28 05:45:20;;;;;;;0.90;0.80;;;;;;;5.03;61.17;102146.78;4995275;28;97066;-50
2023/03/28 05:47:49;;;;;;;2.73;0.90;;;;;;;5.04;61.43;102138.22;4996640;28;97125;-50
2023/03/28 05:50:14;;;;;;;8.20;1.97;;;;;;;5.01;61.35;102158.13;4997697;28;97733;-51
2023/03/28 05:52:40;;;;;;;4.40;1.50;;;;;;;5.04;61.41;102151.06;4995384;28;97066;-49
2023/03/28 05:55:06;;;;;;;3.33;1.10;;;;;;;5.03;61.18;102155.75;4995153;28;97510;-50
2023/03/28 05:57:32;;;;;;;4.23;1.10;;;;;;;5.01;61.42;102160.09;4995068;28;97245;-50
2023/03/28 05:59:57;;;;;;;5.80;1.10;;;;;;;5.02;61.70;102156.19;4995764;28;97435;-50
2023/03/28 06:02:23;;;;;;;3.57;1.20;;;;;;;5.05;61.80;102163.50;4993602;28;106866;-50
2023/03/28 06:04:48;;;;;;;1.50;0.97;;;;;;;5.08;61.46;102168.91;4992985;28;97239;-49
2023/03/28 06:07:14;;;;;;;5.20;1.33;;;;;;;5.12;61.67;102172.34;4991872;28;96776;-49
2023/03/28 06:09:41;;;;;;;4.90;0.90;;;;;;;5.17;61.37;102171.88;4991904;28;100621;-50
2023/03/28 06:12:07;;;;;;;4.23;1.13;;;;;;;5.25;61.94;102167.03;4996703;28;97642;-49
2023/03/28 06:14:32;;;;;;;5.10;1.50;;;;;;;5.37;61.73;102163.72;4994678;28;97034;-50
2023/03/28 06:16:58;;;;;;;4.07;1.00;;;;;;;5.51;61.80;102162.63;4994716;28;97076;-50
2023/03/28 06:19:24;;;;;;;3.30;1.00;;;;;;;5.60;61.53;102166.34;4995439;28;97307;-49
2023/03/28 06:21:50;;;;;;;1.13;0.93;;;;;;;5.66;61.27;102166.63;4995424;28;97436;-51
2023/03/28 06:24:15;;;;;;;6.90;1.20;;;;;;;5.67;61.12;102171.69;4992735;28;97225;-49
2023/03/28 06:26:41;;;;;;;3.53;0.93;;;;;;;5.74;61.23;102174.28;4993977;28;96969;-49
2023/03/28 06:29:06;;;;;;;2.63;0.97;;;;;;;5.82;61.74;102172.94;4994399;28;97618;-50
2023/03/28 06:31:32;;;;;;;6.87;1.10;;;;;;;5.89;61.35;102164.63;4991498;28;97762;-49
2023/03/28 06:33:57;;;;;;;2.70;0.90;;;;;;;5.92;61.42;102171.19;4992889;28;96770;-49
2023/03/28 06:36:23;;;;;;;5.97;1.10;;;;;;;5.94;61.33;102174.28;4993667;28;99657;-49
2023/03/28 06:38:49;;;;;;;2.87;1.27;;;;;;;5.92;61.23;102180.16;4994245;28;97365;-50
2023/03/28 06:41:15;;;;;;;1.10;0.80;;;;;;;5.92;61.29;102171.94;4992121;28;97401;-49
2023/03/28 06:43:41;;;;;;;3.83;1.10;;;;;;;5.89;61.06;102177.50;4992571;28;97154;-49
2023/03/28 06:46:07;;;;;;;4.00;1.13;;;;;;;5.86;61.28;102175.59;4996634;28;96780;-49
2023/03/28 06:48:32;;;;;;;4.23;0.90;;;;;;;5.86;61.29;102179.09;4995575;28;97434;-49
2023/03/28 06:50:58;;;;;;;3.10;1.00;;;;;;;5.94;61.85;102183.22;4994973;28;97007;-49
2023/03/28 06:53:23;;;;;;;2.97;1.13;;;;;;;6.07;61.86;102178.63;4991000;28;102909;-50
2023/03/28 06:55:53;;;;;;;3.10;0.90;;;;;;;6.21;61.74;102185.00;4993352;28;98471;-50
2023/03/28 06:58:20;;;;;;;5.17;1.13;;;;;;;6.31;61.84;102178.53;4991796;28;97194;-49
2023/03/28 07:00:46;;;;;;;2.27;0.80;;;;;;;6.39;61.45;102213.47;4993720;28;97397;-51
2023/03/28 07:03:12;;;;;;;3.90;1.10;;;;;;;6.41;61.43;102194.69;4992728;28;98625;-49
2023/03/28 07:05:38;;;;;;;3.13;1.10;;;;;;;6.49;61.42;102198.00;4996971;28;96700;-49
2023/03/28 07:08:05;;;;;;;4.77;0.93;;;;;;;6.54;61.18;102206.47;4995701;28;96953;-50
2023/03/28 07:10:30;;;;;;;10.23;1.00;;;;;;;6.55;61.25;102207.25;4998503;28;97369;-49
2023/03/28 07:12:55;;;;;;;1.97;0.90;;;;;;;6.62;61.36;102207.06;4997930;28;96927;-48
2023/03/28 07:15:21;;;;;;;1.57;0.93;;;;;;;6.67;61.27;102217.50;4996000;28;96998;-48
2023/03/28 07:17:47;;;;;;;4.13;1.27;;;;;;;6.72;61.68;102211.53;4996293;28;111024;-49
2023/03/28 07:20:12;;;;;;;1.57;0.93;;;;;;;6.80;61.44;102218.38;4995109;28;97147;-48
2023/03/28 07:22:38;;;;;;;3.30;1.13;;;;;;;6.86;61.46;102215.91;4998122;28;97219;-48
2023/03/28 07:25:03;;;;;;;6.00;0.80;;;;;;;6.91;61.70;102224.34;4994052;28;97631;-50
2023/03/28 07:27:29;;;;;;;3.53;1.13;;;;;;;6.95;61.22;102221.50;4995734;28;97265;-49
2023/03/28 07:29:54;;;;;;;5.53;1.20;;;;;;;6.98;61.05;102215.97;4994657;28;97173;-48
2023/03/28 07:32:21;;;;;;;3.17;1.10;;;;;;;7.03;61.20;102220.94;4995621;28;97309;-48
2023/03/28 07:34:46;;;;;;;3.60;0.80;;;;;;;7.01;61.53;102223.31;4997548;28;97604;-49
2023/03/28 07:37:11;;;;;;;4.47;1.63;;;;;;;7.00;61.36;102232.72;4995813;28;97475;-49
2023/03/28 07:39:38;;;;;;;2.67;0.93;;;;;;;7.07;61.47;102220.81;4996431;28;97080;-50
2023/03/28 07:42:09;;;;;;;4.87;1.17;;;;;;;7.20;61.59;102235.34;4997399;28;96976;-50
2023/03/28 07:44:34;;;;;;;1.33;1.23;;;;;;;7.27;61.46;102230.44;5001022;28;97071;-50
2023/03/28 07:47:00;;;;;;;6.63;1.10;;;;;;;7.37;61.25;102229.41;4996027;28;97262;-50
2023/03/28 07:49:26;;;;;;;2.50;1.00;;;;;;;7.40;60.95;102239.50;4997501;28;97132;-49
2023/03/28 07:51:51;;;;;;;2.80;1.00;;;;;;;7.42;60.80;102228.91;4993352;28;96786;-49
2023/03/28 07:54:17;;;;;;;2.70;1.00;;;;;;;7.46;61.16;102245.22;4994492;28;96865;-50
2023/03/28 07:56:46;;;;;;;9.30;1.30;;;;;;;7.48;60.95;102240.09;4992421;28;98471;-50
2023/03/28 07:59:12;;;;;;;1.33;1.00;;;;;;;7.50;61.03;102249.41;4997887;28;97607;-50
2023/03/28 08:01:42;;;;;;;16.23;1.17;;;;;;;7.53;61.12;102248.53;4996828;28;96795;-50
2023/03/28 08:04:08;;;;;;;7.03;1.40;;;;;;;7.62;61.20;102250.66;4996373;28;97470;-50
2023/03/28 08:06:37;;;;;;;6.63;1.13;;;;;;;7.81;61.52;102257.19;4998672;28;97444;-49
2023/03/28 08:09:05;;;;;;;6.67;1.67;;;;;;;8.00;61.21;102259.75;4996214;28;97329;-50
2023/03/28 08:11:31;;;;;;;2.70;1.00;;;;;;;8.09;61.01;102264.59;5000566;28;96811;-49
2023/03/28 08:13:56;;;;;;;6.50;2.00;;;;;;;8.13;60.59;102262.53;4996232;28;97393;-49
2023/03/28 08:16:21;;;;;;;5.10;1.07;;;;;;;8.20;61.00;102273.28;4995261;28;97760;-49
2023/03/28 08:18:47;;;;;;;5.57;1.40;;;;;;;8.27;60.96;102268.41;4995962;28;97135;-49
2023/03/28 08:21:12;;;;;;;3.73;1.27;;;;;;;8.40;60.76;102264.91;4994781;28;101166;-49
2023/03/28 08:23:38;;;;;;;6.00;1.73;;;;;;;8.53;60.55;102266.44;4993424;28;97295;-50
2023/03/28 08:26:06;;;;;;;5.30;1.10;;;;;;;8.62;60.51;102265.78;4994866;28;97483;-49
2023/03/28 08:28:35;;;;;;;5.90;1.13;;;;;;;8.70;60.41;102270.63;4997055;28;97534;-49
2023/03/28 08:31:08;;;;;;;2.17;1.20;;;;;;;8.79;60.14;102269.94;4992973;28;96834;-49
2023/03/28 08:33:33;;;;;;;5.37;2.20;;;;;;;8.86;60.32;102270.50;4994303;28;97068;-50
2023/03/28 08:35:59;;;;;;;2.60;1.47;;;;;;;8.97;60.02;102276.44;4995985;28;99200;-49
2023/03/28 08:38:24;;;;;;;9.10;1.70;;;;;;;9.03;60.18;102266.41;4993653;28;97451;-50
2023/03/28 08:41:16;;;;;;;2.50;1.00;;;;;;;9.16;59.76;102273.84;4994305;28;97055;-49
2023/03/28 08:43:56;;;;;;;3.00;0.93;;;;;;;9.27;60.18;102272.28;4981376;28;97630;-49
2023/03/28 08:46:24;;;;;;;11.37;1.17;;;;;;;9.42;59.86;102273.34;4996592;28;97016;-50
2023/03/28 08:48:51;;;;;;;6.07;2.17;;;;;;;9.57;59.67;102279.88;4996623;28;97194;-49
2023/03/28 08:51:35;;;;;;;9.23;1.57;;;;;;;9.63;58.69;102275.34;4994426;28;97192;-51
2023/03/28 08:54:22;;;;;;;6.37;1.10;;;;;;;9.60;58.93;102281.75;4994884;28;96680;-49
2023/03/28 08:56:51;;;;;;;1.90;1.13;;;;;;;9.66;59.28;102284.69;4994442;28;97915;-49
2023/03/28 08:59:25;;;;;;;10.37;1.20;;;;;;;9.67;59.05;102278.75;4996453;28;97201;-50
2023/03/28 09:01:51;;;;;;;3.50;0.90;;;;;;;9.71;59.23;102286.88;4997683;28;97341;-50
2023/03/28 09:04:26;;;;;;;6.87;1.20;;;;;;;9.77;59.18;102293.31;4995827;28;97281;-50
2023/03/28 09:07:02;;;;;;;5.80;1.27;;;;;;;9.82;59.08;102284.50;5000237;28;97291;-50
2023/03/28 09:09:42;;;;;;;3.53;1.17;;;;;;;9.86;58.73;102290.66;4993178;28;97204;-49
2023/03/28 09:12:16;;;;;;;3.93;1.30;;;;;;;9.90;58.67;102287.75;4995536;28;97257;-50
2023/03/28 09:15:17;;;;;;;4.73;1.10;;;;;;;9.97;58.12;102287.50;4994731;28;97125;-49
2023/03/28 09:18:04;;;;;;;2.80;0.90;;;;;;;10.03;58.19;102283.72;4993301;28;97994;-49
2023/03/28 09:20:41;;;;;;;3.80;1.10;;;;;;;10.05;58.57;102295.06;4995500;28;97224;-49
2023/03/28 09:23:15;;;;;;;4.50;1.33;;;;;;;10.17;58.81;102290.72;4995741;28;97305;-51
2023/03/28 09:25:47;;;;;;;4.57;1.10;;;;;;;10.33;58.58;102298.78;4994493;28;97405;-50
2023/03/28 09:28:25;;;;;;;5.50;1.77;;;;;;;10.38;57.36;102296.19;4993884;28;97911;-51
2023/03/28 09:30:53;;;;;;;3.70;1.20;;;;;;;10.35;57.91;102293.59;4992542;28;97550;-49
2023/03/28 09:33:25;;;;;;;3.13;1.10;;;;;;;10.37;58.08;102296.66;4993802;28;97324;-49
2023/03/28 09:35:55;;;;;;;3.03;0.87;;;;;;;10.41;58.11;102289.03;4998914;28;97040;-50
2023/03/28 09:38:28;;;;;;;5.10;1.13;;;;;;;10.44;58.17;102286.13;4992186;28;97941;-50
2023/03/28 09:40:58;;;;;;;2.60;1.17;;;;;;;10.47;57.86;102285.25;4993136;28;97567;-49
2023/03/28 09:43:46;;;;;;;3.43;1.30;;;;;;;10.57;57.86;102288.03;4992952;28;97032;-50
2023/03/28 09:46:22;;;;;;;4.00;1.10;;;;;;;10.63;57.37;102289.75;4995103;28;97651;-50
2023/03/28 09:48:47;;;;;;;8.13;1.57;;;;;;;10.60;57.81;102281.63;4996582;28;98798;-51
2023/03/28 09:51:18;;;;;;;4.50;1.10;;;;;;;10.61;57.72;102283.16;4993670;28;97357;-50
2023/03/28 09:53:44;;;;;;;2.10;0.90;;;;;;;10.64;57.67;102276.75;4994744;28;97446;-50
2023/03/28 09:56:25;;;;;;;4.33;2.40;;;;;;;10.65;57.65;102275.53;4993581;28;97557;-50
2023/03/28 09:58:58;;;;;;;4.07;1.57;;;;;;;10.61;57.07;102274.91;4993620;28;97244;-50
2023/03/28 10:01:40;;;;;;;3.70;1.23;;;;;;;10.52;56.96;102281.91;4995223;28;98684;-50
2023/03/28 10:04:12;;;;;;;3.00;1.10;;;;;;;10.44;57.45;102283.38;4992938;28;97292;-50
2023/03/28 10:06:39;;;;;;;2.57;1.20;;;;;;;10.44;57.80;102280.63;4993502;28;97396;-50
2023/03/28 10:09:15;;;;;;;6.07;1.43;;;;;;;10.50;57.36;102287.09;4992810;28;98290;-51
2023/03/28 10:12:03;;;;;;;5.43;1.37;;;;;;;10.62;57.12;102279.19;4995739;28;98062;-50
2023/03/28 10:14:47;;;;;;;4.50;0.90;;;;;;;10.80;55.87;102282.00;4993643;28;97170;-50
2023/03/28 10:17:35;;;;;;;2.40;0.87;;;;;;;10.86;55.38;102282.94;4994696;28;97114;-50
2023/03/28 10:20:08;;;;;;;3.57;1.20;;;;;;;10.87;56.57;102279.75;4993556;28;98853;-51
2023/03/28 10:22:37;;;;;;;2.90;0.80;;;;;;;10.80;56.01;102285.53;4994110;28;97177;-50
2023/03/28 10:25:06;;;;;;;2.93;1.00;;;;;;;10.66;56.20;102290.84;4992272;28;97201;-50
2023/03/28 10:27:31;;;;;;;2.10;0.80;;;;;;;10.51;56.45;102291.38;4994467;28;97134;-51
2023/03/28 10:30:06;;;;;;;2.13;0.93;;;;;;;10.45;56.74;102295.94;4994534;28;97326;-49
2023/03/28 10:32:32;;;;;;;2.03;1.00;;;;;;;10.44;56.79;102296.41;4993677;28;97430;-50
2023/03/28 10:35:28;;;;;;;6.23;1.30;;;;;;;10.50;55.81;102294.59;4995036;28;96856;-49
2023/03/28 10:37:54;;;;;;;6.93;1.60;;;;;;;10.63;56.96;102297.22;4992547;28;97161;-49
2023/03/28 10:40:19;;;;;;;5.93;1.20;;;;;;;10.84;56.88;102288.13;4992680;28;96855;-49
2023/03/28 10:42:48;;;;;;;2.87;1.47;;;;;;;10.94;56.45;102306.22;4997854;28;97550;-49
2023/03/28 10:45:39;;;;;;;4.03;1.07;;;;;;;10.95;55.62;102291.22;4999372;28;97420;-49
2023/03/28 10:48:19;;;;;;;2.50;1.30;;;;;;;10.96;55.54;102295.53;4996757;28;97234;-50
2023/03/28 10:50:50;;;;;;;1.67;0.80;;;;;;;11.00;56.21;102294.16;4996620;28;97801;-49
2023/03/28 10:54:10;;;;;;;3.90;1.23;;;;;;;11.05;55.37;102290.03;4996991;28;97158;-49
2023/03/28 10:56:40;;;;;;;3.00;1.00;;;;;;;11.10;56.13;102281.94;4946112;28;97544;-49
2023/03/28 10:59:30;;;;;;;2.03;0.90;;;;;;;11.16;55.27;102285.63;4987459;28;96938;-49
2023/03/28 11:02:00;;;;;;;8.50;1.20;;;;;;;11.17;55.63;102287.16;4999477;28;97373;-50
2023/03/28 11:05:02;;;;;;;6.33;1.20;;;;;;;11.07;54.00;102279.34;4997379;28;97143;-49
2023/03/28 11:07:36;;;;;;;4.50;1.47;;;;;;;11.08;55.24;102281.63;4996822;28;97365;-49
2023/03/28 11:10:13;;;;;;;3.07;1.07;;;;;;;11.15;55.23;102280.56;4995780;28;97098;-50
2023/03/28 11:13:01;;;;;;;9.23;1.77;;;;;;;11.24;54.91;102277.84;4999505;28;97384;-49
2023/03/28 11:15:42;;;;;;;2.83;1.10;;;;;;;11.26;54.69;102286.41;4994077;28;97112;-50
2023/03/28 11:18:25;;;;;;;4.20;1.37;;;;;;;11.34;54.60;102282.13;4998469;28;96863;-51
2023/03/28 11:21:06;;;;;;;3.80;0.97;;;;;;;11.50;54.46;102290.13;4998582;28;97650;-49
2023/03/28 11:23:43;;;;;;;4.67;1.23;;;;;;;11.72;54.85;102285.25;4997349;28;97743;-49
2023/03/28 11:26:13;;;;;;;6.87;1.10;;;;;;;12.11;54.67;102277.22;4994616;28;96947;-50
2023/03/28 11:28:50;;;;;;;10.80;1.83;;;;;;;12.55;53.98;102275.56;4994273;28;97437;-50
2023/03/28 11:31:29;;;;;;;4.83;1.50;;;;;;;13.12;52.17;102273.59;4998147;28;97308;-49
2023/03/28 11:34:01;;;;;;;4.00;1.20;;;;;;;13.28;53.10;102273.94;4995760;28;97193;-50
2023/03/28 11:36:45;;;;;;;1.90;0.97;;;;;;;13.57;50.87;102270.50;4994416;28;96996;-50
2023/03/28 11:39:18;;;;;;;3.87;1.30;;;;;;;13.76;52.05;102257.28;4995497;28;97311;-51
2023/03/28 11:41:47;;;;;;;3.70;1.20;;;;;;;13.73;51.82;102252.69;4996679;28;97289;-50
2023/03/28 11:44:30;;;;;;;2.50;1.07;;;;;;;13.57;49.37;102247.59;5003566;28;98644;-49
2023/03/28 11:47:02;;;;;;;2.20;0.90;;;;;;;13.42;51.88;102258.63;4993754;28;98030;-50
2023/03/28 11:50:03;;;;;;;5.47;1.30;;;;;;;13.86;49.54;102248.41;4996120;28;97153;-49